sensor_id;sensor_type;location;lat;lon;timestamp;P1;durP1;ratioP1;P2;durP2;ratioP2
9834;SDS011;4956;50.996;13.716;2022-08-21T00:03:10;32.70;;;26.27;;
9834;SDS011;4956;50.996;13.716;2022-08-21T00:06:31;31.75;;;26.05;;
9834;SDS011;4956;50.996;13.716;2022-08-21T00:09:53;36.90;;;29.33;;
9834;SDS011;4956;50.996;13.716;2022-08-21T00:13:13;35.63;;;27.05;;
9834;SDS011;4956;50.996;13.716;2022-08-21T00:16:34;34.38;;;26.73;;
9834;SDS011;4956;50.996;13.716;2022-08-21T00:19:54;50.15;;;31.02;;
9834;SDS011;4956;50.996;13.716;2022-08-21T00:23:15;32.30;;;24.67;;
9834;SDS011;4956;50.996;13.716;2022-08-21T00:26:36;26.55;;;21.40;;
9834;SDS011;4956;50.996;13.716;2022-08-21T00:29:56;23.63;;;19.83;;
9834;SDS011;4956;50.996;13.716;2022-08-21T00:33:17;21.38;;;18.70;;
9834;SDS011;4956;50.996;13.716;2022-08-21T00:36:40;27.00;;;21.90;;
9834;SDS011;4956;50.996;13.716;2022-08-21T00:40:00;27.45;;;22.38;;
9834;SDS011;4956;50.996;13.716;2022-08-21T00:43:22;26.80;;;21.67;;
9834;SDS011;4956;50.996;13.716;2022-08-21T00:46:45;31.50;;;24.30;;
9834;SDS011;4956;50.996;13.716;2022-08-21T00:50:07;36.22;;;29.48;;
9834;SDS011;4956;50.996;13.716;2022-08-21T00:53:28;36.65;;;29.02;;
9834;SDS011;4956;50.996;13.716;2022-08-21T00:56:50;39.55;;;31.25;;
9834;SDS011;4956;50.996;13.716;2022-08-21T01:00:16;36.05;;;29.38;;
9834;SDS011;4956;50.996;13.716;2022-08-21T01:03:39;46.28;;;34.58;;
9834;SDS011;4956;50.996;13.716;2022-08-21T01:07:00;39.30;;;30.42;;
9834;SDS011;4956;50.996;13.716;2022-08-21T01:10:20;40.55;;;31.83;;
9834;SDS011;4956;50.996;13.716;2022-08-21T01:13:41;44.38;;;34.00;;
9834;SDS011;4956;50.996;13.716;2022-08-21T01:17:06;43.55;;;33.75;;
9834;SDS011;4956;50.996;13.716;2022-08-21T01:20:27;41.92;;;32.35;;
9834;SDS011;4956;50.996;13.716;2022-08-21T01:23:49;49.45;;;36.45;;
9834;SDS011;4956;50.996;13.716;2022-08-21T01:27:12;49.47;;;37.33;;
9834;SDS011;4956;50.996;13.716;2022-08-21T01:30:32;40.80;;;31.38;;
9834;SDS011;4956;50.996;13.716;2022-08-21T01:33:54;35.33;;;27.00;;
9834;SDS011;4956;50.996;13.716;2022-08-21T01:37:15;26.65;;;21.33;;
9834;SDS011;4956;50.996;13.716;2022-08-21T01:40:36;25.02;;;19.75;;
9834;SDS011;4956;50.996;13.716;2022-08-21T01:43:56;24.13;;;19.33;;
9834;SDS011;4956;50.996;13.716;2022-08-21T01:47:17;18.13;;;14.20;;
9834;SDS011;4956;50.996;13.716;2022-08-21T01:50:37;16.50;;;13.27;;
9834;SDS011;4956;50.996;13.716;2022-08-21T01:53:57;16.98;;;12.93;;
9834;SDS011;4956;50.996;13.716;2022-08-21T01:57:18;14.93;;;13.07;;
9834;SDS011;4956;50.996;13.716;2022-08-21T02:00:38;14.97;;;12.20;;
9834;SDS011;4956;50.996;13.716;2022-08-21T02:03:58;14.35;;;12.75;;
9834;SDS011;4956;50.996;13.716;2022-08-21T02:07:19;13.77;;;11.80;;
9834;SDS011;4956;50.996;13.716;2022-08-21T02:10:40;13.18;;;11.02;;
9834;SDS011;4956;50.996;13.716;2022-08-21T02:14:01;10.15;;;9.15;;
9834;SDS011;4956;50.996;13.716;2022-08-21T02:17:21;9.93;;;8.90;;
9834;SDS011;4956;50.996;13.716;2022-08-21T02:20:43;9.55;;;8.27;;
9834;SDS011;4956;50.996;13.716;2022-08-21T02:24:06;8.95;;;7.90;;
9834;SDS011;4956;50.996;13.716;2022-08-21T02:27:27;9.93;;;7.90;;
9834;SDS011;4956;50.996;13.716;2022-08-21T02:30:48;13.15;;;8.27;;
9834;SDS011;4956;50.996;13.716;2022-08-21T02:34:09;9.43;;;8.00;;
9834;SDS011;4956;50.996;13.716;2022-08-21T02:37:29;10.57;;;8.40;;
9834;SDS011;4956;50.996;13.716;2022-08-21T02:40:50;8.73;;;7.50;;
9834;SDS011;4956;50.996;13.716;2022-08-21T02:44:11;8.90;;;8.00;;
9834;SDS011;4956;50.996;13.716;2022-08-21T02:47:31;9.37;;;8.20;;
9834;SDS011;4956;50.996;13.716;2022-08-21T02:50:53;8.87;;;8.03;;
9834;SDS011;4956;50.996;13.716;2022-08-21T02:54:15;8.80;;;7.90;;
9834;SDS011;4956;50.996;13.716;2022-08-21T02:57:35;8.73;;;7.63;;
9834;SDS011;4956;50.996;13.716;2022-08-21T03:00:58;10.10;;;8.98;;
9834;SDS011;4956;50.996;13.716;2022-08-21T03:04:18;9.50;;;8.50;;
9834;SDS011;4956;50.996;13.716;2022-08-21T03:07:39;9.68;;;8.68;;
9834;SDS011;4956;50.996;13.716;2022-08-21T03:11:00;10.35;;;9.18;;
9834;SDS011;4956;50.996;13.716;2022-08-21T03:14:21;9.88;;;8.88;;
9834;SDS011;4956;50.996;13.716;2022-08-21T03:17:41;11.10;;;9.90;;
9834;SDS011;4956;50.996;13.716;2022-08-21T03:21:01;10.57;;;9.48;;
9834;SDS011;4956;50.996;13.716;2022-08-21T03:24:22;10.80;;;9.45;;
9834;SDS011;4956;50.996;13.716;2022-08-21T03:27:42;10.30;;;9.20;;
9834;SDS011;4956;50.996;13.716;2022-08-21T03:31:03;10.70;;;9.57;;
9834;SDS011;4956;50.996;13.716;2022-08-21T03:34:24;10.88;;;9.75;;
9834;SDS011;4956;50.996;13.716;2022-08-21T03:37:45;10.50;;;9.40;;
9834;SDS011;4956;50.996;13.716;2022-08-21T03:41:06;11.00;;;9.65;;
9834;SDS011;4956;50.996;13.716;2022-08-21T03:44:27;11.15;;;10.05;;
9834;SDS011;4956;50.996;13.716;2022-08-21T03:47:59;11.52;;;10.02;;
9834;SDS011;4956;50.996;13.716;2022-08-21T03:51:20;13.60;;;10.30;;
9834;SDS011;4956;50.996;13.716;2022-08-21T03:54:41;12.53;;;10.13;;
9834;SDS011;4956;50.996;13.716;2022-08-21T03:58:01;12.38;;;10.68;;
9834;SDS011;4956;50.996;13.716;2022-08-21T04:01:22;17.95;;;12.32;;
9834;SDS011;4956;50.996;13.716;2022-08-21T04:04:42;14.33;;;11.60;;
9834;SDS011;4956;50.996;13.716;2022-08-21T04:08:04;15.68;;;11.85;;
9834;SDS011;4956;50.996;13.716;2022-08-21T04:11:25;13.32;;;10.90;;
9834;SDS011;4956;50.996;13.716;2022-08-21T04:14:45;11.60;;;9.80;;
9834;SDS011;4956;50.996;13.716;2022-08-21T04:18:05;11.33;;;9.77;;
9834;SDS011;4956;50.996;13.716;2022-08-21T04:21:26;11.63;;;10.18;;
9834;SDS011;4956;50.996;13.716;2022-08-21T04:24:46;11.13;;;9.93;;
9834;SDS011;4956;50.996;13.716;2022-08-21T04:28:06;13.53;;;11.07;;
9834;SDS011;4956;50.996;13.716;2022-08-21T04:31:27;13.48;;;11.52;;
9834;SDS011;4956;50.996;13.716;2022-08-21T04:34:48;13.82;;;11.88;;
9834;SDS011;4956;50.996;13.716;2022-08-21T04:38:09;14.40;;;12.27;;
9834;SDS011;4956;50.996;13.716;2022-08-21T04:41:29;15.07;;;12.80;;
9834;SDS011;4956;50.996;13.716;2022-08-21T04:44:50;14.35;;;11.80;;
9834;SDS011;4956;50.996;13.716;2022-08-21T04:48:11;14.48;;;12.80;;
9834;SDS011;4956;50.996;13.716;2022-08-21T04:51:34;15.88;;;14.18;;
9834;SDS011;4956;50.996;13.716;2022-08-21T04:54:55;16.63;;;14.70;;
9834;SDS011;4956;50.996;13.716;2022-08-21T04:58:17;17.58;;;15.57;;
9834;SDS011;4956;50.996;13.716;2022-08-21T05:01:39;18.42;;;16.40;;
9834;SDS011;4956;50.996;13.716;2022-08-21T05:04:59;18.92;;;16.58;;
9834;SDS011;4956;50.996;13.716;2022-08-21T05:08:21;21.07;;;17.23;;
9834;SDS011;4956;50.996;13.716;2022-08-21T05:11:43;19.48;;;17.20;;
9834;SDS011;4956;50.996;13.716;2022-08-21T05:15:03;19.52;;;17.42;;
9834;SDS011;4956;50.996;13.716;2022-08-21T05:18:24;21.38;;;18.80;;
9834;SDS011;4956;50.996;13.716;2022-08-21T05:21:45;21.17;;;18.23;;
9834;SDS011;4956;50.996;13.716;2022-08-21T05:25:08;22.90;;;20.33;;
9834;SDS011;4956;50.996;13.716;2022-08-21T05:28:30;22.23;;;18.65;;
9834;SDS011;4956;50.996;13.716;2022-08-21T05:31:51;20.75;;;18.35;;
9834;SDS011;4956;50.996;13.716;2022-08-21T05:35:11;24.20;;;20.45;;
9834;SDS011;4956;50.996;13.716;2022-08-21T05:38:32;21.40;;;18.50;;
9834;SDS011;4956;50.996;13.716;2022-08-21T05:41:52;24.17;;;21.43;;
9834;SDS011;4956;50.996;13.716;2022-08-21T05:45:12;22.93;;;20.07;;
9834;SDS011;4956;50.996;13.716;2022-08-21T05:48:33;25.92;;;21.00;;
9834;SDS011;4956;50.996;13.716;2022-08-21T05:51:54;25.15;;;21.48;;
9834;SDS011;4956;50.996;13.716;2022-08-21T05:55:14;29.00;;;23.60;;
9834;SDS011;4956;50.996;13.716;2022-08-21T05:58:34;28.40;;;23.70;;
9834;SDS011;4956;50.996;13.716;2022-08-21T06:01:55;28.27;;;23.60;;
9834;SDS011;4956;50.996;13.716;2022-08-21T06:05:15;22.77;;;20.13;;
9834;SDS011;4956;50.996;13.716;2022-08-21T06:08:37;24.65;;;20.83;;
9834;SDS011;4956;50.996;13.716;2022-08-21T06:11:57;21.95;;;19.15;;
9834;SDS011;4956;50.996;13.716;2022-08-21T06:15:18;23.02;;;20.17;;
9834;SDS011;4956;50.996;13.716;2022-08-21T06:18:39;20.23;;;17.95;;
9834;SDS011;4956;50.996;13.716;2022-08-21T06:22:00;22.80;;;20.30;;
9834;SDS011;4956;50.996;13.716;2022-08-21T06:25:20;25.42;;;21.42;;
9834;SDS011;4956;50.996;13.716;2022-08-21T06:28:41;23.15;;;19.85;;
9834;SDS011;4956;50.996;13.716;2022-08-21T06:32:02;22.27;;;19.00;;
9834;SDS011;4956;50.996;13.716;2022-08-21T06:35:23;22.75;;;19.83;;
9834;SDS011;4956;50.996;13.716;2022-08-21T06:38:44;25.48;;;20.98;;
9834;SDS011;4956;50.996;13.716;2022-08-21T06:42:05;22.77;;;19.90;;
9834;SDS011;4956;50.996;13.716;2022-08-21T06:45:26;22.60;;;19.75;;
9834;SDS011;4956;50.996;13.716;2022-08-21T06:48:47;21.00;;;18.73;;
9834;SDS011;4956;50.996;13.716;2022-08-21T06:52:11;24.08;;;19.98;;
9834;SDS011;4956;50.996;13.716;2022-08-21T06:55:32;23.02;;;20.40;;
9834;SDS011;4956;50.996;13.716;2022-08-21T06:58:53;21.92;;;19.60;;
9834;SDS011;4956;50.996;13.716;2022-08-21T07:02:13;21.63;;;19.00;;
9834;SDS011;4956;50.996;13.716;2022-08-21T07:05:34;21.95;;;18.55;;
9834;SDS011;4956;50.996;13.716;2022-08-21T07:08:54;24.83;;;20.50;;
9834;SDS011;4956;50.996;13.716;2022-08-21T07:12:14;21.42;;;18.92;;
9834;SDS011;4956;50.996;13.716;2022-08-21T07:15:35;22.87;;;20.07;;
9834;SDS011;4956;50.996;13.716;2022-08-21T07:18:55;21.45;;;19.15;;
9834;SDS011;4956;50.996;13.716;2022-08-21T07:22:15;22.52;;;20.05;;
9834;SDS011;4956;50.996;13.716;2022-08-21T07:25:38;21.10;;;18.27;;
9834;SDS011;4956;50.996;13.716;2022-08-21T07:28:59;21.33;;;19.02;;
9834;SDS011;4956;50.996;13.716;2022-08-21T07:32:19;25.90;;;21.75;;
9834;SDS011;4956;50.996;13.716;2022-08-21T07:35:40;22.23;;;19.83;;
9834;SDS011;4956;50.996;13.716;2022-08-21T07:39:00;19.77;;;17.52;;
9834;SDS011;4956;50.996;13.716;2022-08-21T07:42:20;19.45;;;17.48;;
9834;SDS011;4956;50.996;13.716;2022-08-21T07:45:41;21.07;;;18.87;;
9834;SDS011;4956;50.996;13.716;2022-08-21T07:49:01;20.60;;;18.40;;
9834;SDS011;4956;50.996;13.716;2022-08-21T07:52:21;21.87;;;19.47;;
9834;SDS011;4956;50.996;13.716;2022-08-21T07:55:42;25.30;;;20.02;;
9834;SDS011;4956;50.996;13.716;2022-08-21T07:59:02;21.45;;;18.80;;
9834;SDS011;4956;50.996;13.716;2022-08-21T08:02:26;22.45;;;19.50;;
9834;SDS011;4956;50.996;13.716;2022-08-21T08:05:49;20.33;;;18.17;;
9834;SDS011;4956;50.996;13.716;2022-08-21T08:09:09;20.15;;;17.98;;
9834;SDS011;4956;50.996;13.716;2022-08-21T08:12:29;18.60;;;16.40;;
9834;SDS011;4956;50.996;13.716;2022-08-21T08:15:50;23.98;;;19.73;;
9834;SDS011;4956;50.996;13.716;2022-08-21T08:19:11;18.88;;;16.90;;
9834;SDS011;4956;50.996;13.716;2022-08-21T08:22:31;17.83;;;16.03;;
9834;SDS011;4956;50.996;13.716;2022-08-21T08:25:51;18.20;;;16.30;;
9834;SDS011;4956;50.996;13.716;2022-08-21T08:29:11;20.07;;;17.83;;
9834;SDS011;4956;50.996;13.716;2022-08-21T08:32:32;16.80;;;15.10;;
9834;SDS011;4956;50.996;13.716;2022-08-21T08:35:52;16.67;;;14.93;;
9834;SDS011;4956;50.996;13.716;2022-08-21T08:39:12;15.98;;;14.35;;
9834;SDS011;4956;50.996;13.716;2022-08-21T08:42:35;18.00;;;16.15;;
9834;SDS011;4956;50.996;13.716;2022-08-21T08:45:56;16.98;;;15.25;;
9834;SDS011;4956;50.996;13.716;2022-08-21T08:52:57;12.80;;;11.48;;
9834;SDS011;4956;50.996;13.716;2022-08-21T08:56:26;14.30;;;12.80;;
9834;SDS011;4956;50.996;13.716;2022-08-21T08:59:50;16.35;;;11.57;;
9834;SDS011;4956;50.996;13.716;2022-08-21T09:03:12;15.77;;;13.60;;
9834;SDS011;4956;50.996;13.716;2022-08-21T09:06:35;12.73;;;11.27;;
9834;SDS011;4956;50.996;13.716;2022-08-21T09:13:34;10.65;;;9.52;;
9834;SDS011;4956;50.996;13.716;2022-08-21T09:17:04;9.18;;;8.27;;
9834;SDS011;4956;50.996;13.716;2022-08-21T09:20:57;9.57;;;8.60;;
9834;SDS011;4956;50.996;13.716;2022-08-21T09:27:49;9.43;;;7.32;;
9834;SDS011;4956;50.996;13.716;2022-08-21T09:31:13;7.72;;;5.90;;
9834;SDS011;4956;50.996;13.716;2022-08-21T09:34:42;7.90;;;6.10;;
9834;SDS011;4956;50.996;13.716;2022-08-21T09:38:04;7.45;;;5.55;;
9834;SDS011;4956;50.996;13.716;2022-08-21T09:41:28;9.75;;;6.07;;
9834;SDS011;4956;50.996;13.716;2022-08-21T09:45:04;6.05;;;4.97;;
9834;SDS011;4956;50.996;13.716;2022-08-21T09:48:39;6.80;;;4.70;;
9834;SDS011;4956;50.996;13.716;2022-08-21T09:52:01;5.78;;;4.35;;
9834;SDS011;4956;50.996;13.716;2022-08-21T09:55:39;7.15;;;4.70;;
9834;SDS011;4956;50.996;13.716;2022-08-21T09:59:28;5.68;;;3.70;;
9834;SDS011;4956;50.996;13.716;2022-08-21T10:02:51;5.90;;;3.75;;
9834;SDS011;4956;50.996;13.716;2022-08-21T10:06:26;6.10;;;3.90;;
9834;SDS011;4956;50.996;13.716;2022-08-21T10:09:57;5.90;;;3.92;;
9834;SDS011;4956;50.996;13.716;2022-08-21T10:13:41;4.82;;;3.95;;
9834;SDS011;4956;50.996;13.716;2022-08-21T10:27:59;6.28;;;3.60;;
9834;SDS011;4956;50.996;13.716;2022-08-21T10:31:51;7.20;;;3.90;;
9834;SDS011;4956;50.996;13.716;2022-08-21T10:35:31;5.82;;;3.72;;
9834;SDS011;4956;50.996;13.716;2022-08-21T10:38:55;5.55;;;3.88;;
9834;SDS011;4956;50.996;13.716;2022-08-21T10:45:54;4.38;;;3.10;;
9834;SDS011;4956;50.996;13.716;2022-08-21T10:53:31;5.80;;;3.58;;
9834;SDS011;4956;50.996;13.716;2022-08-21T10:57:11;7.78;;;3.72;;
9834;SDS011;4956;50.996;13.716;2022-08-21T11:00:49;7.60;;;3.80;;
9834;SDS011;4956;50.996;13.716;2022-08-21T11:04:19;5.75;;;3.67;;
9834;SDS011;4956;50.996;13.716;2022-08-21T11:11:34;7.07;;;3.50;;
9834;SDS011;4956;50.996;13.716;2022-08-21T11:15:00;5.72;;;3.20;;
9834;SDS011;4956;50.996;13.716;2022-08-21T11:22:06;4.88;;;3.10;;
9834;SDS011;4956;50.996;13.716;2022-08-21T11:25:35;7.60;;;3.47;;
9834;SDS011;4956;50.996;13.716;2022-08-21T11:29:01;5.70;;;2.80;;
9834;SDS011;4956;50.996;13.716;2022-08-21T11:32:31;5.15;;;2.92;;
9834;SDS011;4956;50.996;13.716;2022-08-21T11:36:10;5.82;;;3.20;;
9834;SDS011;4956;50.996;13.716;2022-08-21T11:43:39;6.85;;;3.13;;
9834;SDS011;4956;50.996;13.716;2022-08-21T11:47:05;7.25;;;2.60;;
9834;SDS011;4956;50.996;13.716;2022-08-21T11:50:47;9.00;;;2.35;;
9834;SDS011;4956;50.996;13.716;2022-08-21T11:54:13;5.43;;;2.30;;
9834;SDS011;4956;50.996;13.716;2022-08-21T11:57:47;6.45;;;2.42;;
9834;SDS011;4956;50.996;13.716;2022-08-21T12:01:15;5.10;;;2.25;;
9834;SDS011;4956;50.996;13.716;2022-08-21T12:04:50;5.57;;;2.00;;
9834;SDS011;4956;50.996;13.716;2022-08-21T12:08:14;5.90;;;2.20;;
9834;SDS011;4956;50.996;13.716;2022-08-21T12:11:48;3.30;;;1.90;;
9834;SDS011;4956;50.996;13.716;2022-08-21T12:18:40;7.38;;;2.20;;
9834;SDS011;4956;50.996;13.716;2022-08-21T12:25:24;4.65;;;1.90;;
9834;SDS011;4956;50.996;13.716;2022-08-21T12:28:44;5.07;;;1.83;;
9834;SDS011;4956;50.996;13.716;2022-08-21T12:35:37;6.97;;;2.50;;
9834;SDS011;4956;50.996;13.716;2022-08-21T12:39:04;6.82;;;2.00;;
9834;SDS011;4956;50.996;13.716;2022-08-21T12:45:54;4.35;;;2.25;;
9834;SDS011;4956;50.996;13.716;2022-08-21T12:49:16;6.47;;;2.10;;
9834;SDS011;4956;50.996;13.716;2022-08-21T12:52:43;6.50;;;2.33;;
9834;SDS011;4956;50.996;13.716;2022-08-21T12:56:10;9.02;;;2.40;;
9834;SDS011;4956;50.996;13.716;2022-08-21T12:59:32;3.65;;;1.90;;
9834;SDS011;4956;50.996;13.716;2022-08-21T13:02:53;6.18;;;2.75;;
9834;SDS011;4956;50.996;13.716;2022-08-21T13:06:15;6.95;;;2.70;;
9834;SDS011;4956;50.996;13.716;2022-08-21T13:09:41;6.25;;;2.45;;
9834;SDS011;4956;50.996;13.716;2022-08-21T13:13:07;5.60;;;2.15;;
9834;SDS011;4956;50.996;13.716;2022-08-21T13:16:31;4.90;;;2.28;;
9834;SDS011;4956;50.996;13.716;2022-08-21T13:19:59;4.53;;;2.40;;
9834;SDS011;4956;50.996;13.716;2022-08-21T13:23:26;4.70;;;2.55;;
9834;SDS011;4956;50.996;13.716;2022-08-21T13:26:48;7.80;;;2.47;;
9834;SDS011;4956;50.996;13.716;2022-08-21T13:30:13;4.65;;;2.17;;
9834;SDS011;4956;50.996;13.716;2022-08-21T13:33:38;8.05;;;2.40;;
9834;SDS011;4956;50.996;13.716;2022-08-21T13:37:00;6.88;;;2.45;;
9834;SDS011;4956;50.996;13.716;2022-08-21T13:40:24;5.28;;;2.20;;
9834;SDS011;4956;50.996;13.716;2022-08-21T13:43:55;8.95;;;2.47;;
9834;SDS011;4956;50.996;13.716;2022-08-21T13:47:20;5.20;;;2.10;;
9834;SDS011;4956;50.996;13.716;2022-08-21T13:50:40;5.28;;;2.15;;
9834;SDS011;4956;50.996;13.716;2022-08-21T13:54:13;7.60;;;2.00;;
9834;SDS011;4956;50.996;13.716;2022-08-21T13:57:35;3.90;;;1.90;;
9834;SDS011;4956;50.996;13.716;2022-08-21T14:00:56;6.13;;;2.53;;
9834;SDS011;4956;50.996;13.716;2022-08-21T14:07:38;5.83;;;2.10;;
9834;SDS011;4956;50.996;13.716;2022-08-21T14:10:59;4.40;;;1.67;;
9834;SDS011;4956;50.996;13.716;2022-08-21T14:14:38;4.93;;;1.70;;
9834;SDS011;4956;50.996;13.716;2022-08-21T14:18:16;5.15;;;1.88;;
9834;SDS011;4956;50.996;13.716;2022-08-21T14:21:40;4.45;;;1.92;;
9834;SDS011;4956;50.996;13.716;2022-08-21T14:28:31;6.15;;;1.83;;
9834;SDS011;4956;50.996;13.716;2022-08-21T14:31:55;5.05;;;2.00;;
9834;SDS011;4956;50.996;13.716;2022-08-21T14:35:17;4.40;;;1.80;;
9834;SDS011;4956;50.996;13.716;2022-08-21T14:38:38;5.28;;;1.95;;
9834;SDS011;4956;50.996;13.716;2022-08-21T14:41:59;5.13;;;2.00;;
9834;SDS011;4956;50.996;13.716;2022-08-21T14:45:27;5.72;;;1.58;;
9834;SDS011;4956;50.996;13.716;2022-08-21T14:48:49;4.20;;;1.65;;
9834;SDS011;4956;50.996;13.716;2022-08-21T14:52:10;5.35;;;1.75;;
9834;SDS011;4956;50.996;13.716;2022-08-21T14:55:31;5.60;;;1.80;;
9834;SDS011;4956;50.996;13.716;2022-08-21T14:59:12;6.72;;;1.70;;
9834;SDS011;4956;50.996;13.716;2022-08-21T15:02:32;5.50;;;1.90;;
9834;SDS011;4956;50.996;13.716;2022-08-21T15:05:52;4.60;;;1.70;;
9834;SDS011;4956;50.996;13.716;2022-08-21T15:09:13;2.72;;;1.42;;
9834;SDS011;4956;50.996;13.716;2022-08-21T15:12:33;4.05;;;1.90;;
9834;SDS011;4956;50.996;13.716;2022-08-21T15:15:54;2.83;;;1.70;;
9834;SDS011;4956;50.996;13.716;2022-08-21T15:19:15;5.32;;;1.70;;
9834;SDS011;4956;50.996;13.716;2022-08-21T15:22:36;2.42;;;1.50;;
9834;SDS011;4956;50.996;13.716;2022-08-21T15:25:56;3.97;;;1.53;;
9834;SDS011;4956;50.996;13.716;2022-08-21T15:29:17;3.33;;;1.50;;
9834;SDS011;4956;50.996;13.716;2022-08-21T15:32:38;4.40;;;1.50;;
9834;SDS011;4956;50.996;13.716;2022-08-21T15:35:59;2.25;;;1.25;;
9834;SDS011;4956;50.996;13.716;2022-08-21T15:39:19;2.83;;;1.40;;
9834;SDS011;4956;50.996;13.716;2022-08-21T15:42:40;5.32;;;1.73;;
9834;SDS011;4956;50.996;13.716;2022-08-21T15:46:00;3.75;;;1.60;;
9834;SDS011;4956;50.996;13.716;2022-08-21T15:49:21;4.40;;;1.23;;
9834;SDS011;4956;50.996;13.716;2022-08-21T15:52:42;4.80;;;1.80;;
9834;SDS011;4956;50.996;13.716;2022-08-21T15:56:02;3.13;;;1.50;;
9834;SDS011;4956;50.996;13.716;2022-08-21T15:59:23;3.30;;;1.40;;
9834;SDS011;4956;50.996;13.716;2022-08-21T16:02:44;3.05;;;1.45;;
9834;SDS011;4956;50.996;13.716;2022-08-21T16:06:08;3.35;;;1.60;;
9834;SDS011;4956;50.996;13.716;2022-08-21T16:09:28;4.82;;;1.70;;
9834;SDS011;4956;50.996;13.716;2022-08-21T16:12:50;2.40;;;1.13;;
9834;SDS011;4956;50.996;13.716;2022-08-21T16:16:17;2.90;;;1.30;;
9834;SDS011;4956;50.996;13.716;2022-08-21T16:19:39;3.25;;;1.30;;
9834;SDS011;4956;50.996;13.716;2022-08-21T16:22:59;4.63;;;1.70;;
9834;SDS011;4956;50.996;13.716;2022-08-21T16:26:20;1.92;;;1.30;;
9834;SDS011;4956;50.996;13.716;2022-08-21T16:29:40;4.90;;;1.70;;
9834;SDS011;4956;50.996;13.716;2022-08-21T16:33:01;4.85;;;1.60;;
9834;SDS011;4956;50.996;13.716;2022-08-21T16:36:22;3.95;;;1.80;;
9834;SDS011;4956;50.996;13.716;2022-08-21T16:39:45;2.67;;;1.50;;
9834;SDS011;4956;50.996;13.716;2022-08-21T16:43:05;5.10;;;1.73;;
9834;SDS011;4956;50.996;13.716;2022-08-21T16:46:25;3.78;;;2.17;;
9834;SDS011;4956;50.996;13.716;2022-08-21T16:49:47;2.95;;;1.65;;
9834;SDS011;4956;50.996;13.716;2022-08-21T16:53:09;3.08;;;1.50;;
9834;SDS011;4956;50.996;13.716;2022-08-21T16:56:30;2.70;;;1.80;;
9834;SDS011;4956;50.996;13.716;2022-08-21T16:59:50;4.35;;;2.00;;
9834;SDS011;4956;50.996;13.716;2022-08-21T17:03:12;2.80;;;1.70;;
9834;SDS011;4956;50.996;13.716;2022-08-21T17:06:35;4.78;;;1.73;;
9834;SDS011;4956;50.996;13.716;2022-08-21T17:09:55;2.42;;;1.40;;
9834;SDS011;4956;50.996;13.716;2022-08-21T17:13:16;3.50;;;1.40;;
9834;SDS011;4956;50.996;13.716;2022-08-21T17:16:37;4.30;;;1.73;;
9834;SDS011;4956;50.996;13.716;2022-08-21T17:19:59;2.03;;;1.40;;
9834;SDS011;4956;50.996;13.716;2022-08-21T17:23:19;2.08;;;1.60;;
9834;SDS011;4956;50.996;13.716;2022-08-21T17:26:41;2.95;;;1.73;;
9834;SDS011;4956;50.996;13.716;2022-08-21T17:30:02;2.40;;;1.48;;
9834;SDS011;4956;50.996;13.716;2022-08-21T17:33:23;4.97;;;1.77;;
9834;SDS011;4956;50.996;13.716;2022-08-21T17:36:45;2.42;;;1.55;;
9834;SDS011;4956;50.996;13.716;2022-08-21T17:40:06;4.45;;;1.80;;
9834;SDS011;4956;50.996;13.716;2022-08-21T17:43:29;3.45;;;1.70;;
9834;SDS011;4956;50.996;13.716;2022-08-21T17:46:49;3.33;;;1.73;;
9834;SDS011;4956;50.996;13.716;2022-08-21T17:50:10;3.47;;;1.70;;
9834;SDS011;4956;50.996;13.716;2022-08-21T17:53:31;3.35;;;1.60;;
9834;SDS011;4956;50.996;13.716;2022-08-21T17:56:52;4.22;;;1.75;;
9834;SDS011;4956;50.996;13.716;2022-08-21T18:00:14;3.05;;;1.80;;
9834;SDS011;4956;50.996;13.716;2022-08-21T18:03:35;3.10;;;1.90;;
9834;SDS011;4956;50.996;13.716;2022-08-21T18:06:56;4.63;;;2.03;;
9834;SDS011;4956;50.996;13.716;2022-08-21T18:10:16;2.85;;;1.90;;
9834;SDS011;4956;50.996;13.716;2022-08-21T18:13:36;3.83;;;2.00;;
9834;SDS011;4956;50.996;13.716;2022-08-21T18:16:58;4.97;;;2.13;;
9834;SDS011;4956;50.996;13.716;2022-08-21T18:20:19;3.53;;;2.00;;
9834;SDS011;4956;50.996;13.716;2022-08-21T18:23:41;3.92;;;2.50;;
9834;SDS011;4956;50.996;13.716;2022-08-21T18:27:04;4.50;;;2.65;;
9834;SDS011;4956;50.996;13.716;2022-08-21T18:30:24;3.30;;;2.42;;
9834;SDS011;4956;50.996;13.716;2022-08-21T18:33:45;4.17;;;2.50;;
9834;SDS011;4956;50.996;13.716;2022-08-21T18:37:08;5.50;;;2.40;;
9834;SDS011;4956;50.996;13.716;2022-08-21T18:40:29;3.55;;;2.58;;
9834;SDS011;4956;50.996;13.716;2022-08-21T18:43:50;4.57;;;2.53;;
9834;SDS011;4956;50.996;13.716;2022-08-21T18:47:12;3.58;;;2.05;;
9834;SDS011;4956;50.996;13.716;2022-08-21T18:50:38;5.25;;;2.35;;
9834;SDS011;4956;50.996;13.716;2022-08-21T18:53:59;2.85;;;2.10;;
9834;SDS011;4956;50.996;13.716;2022-08-21T18:57:26;2.83;;;2.10;;
9834;SDS011;4956;50.996;13.716;2022-08-21T19:00:48;3.25;;;2.28;;
9834;SDS011;4956;50.996;13.716;2022-08-21T19:04:09;3.20;;;2.45;;
9834;SDS011;4956;50.996;13.716;2022-08-21T19:07:30;4.85;;;2.88;;
9834;SDS011;4956;50.996;13.716;2022-08-21T19:10:50;4.50;;;2.15;;
9834;SDS011;4956;50.996;13.716;2022-08-21T19:14:14;3.88;;;2.40;;
9834;SDS011;4956;50.996;13.716;2022-08-21T19:17:36;4.20;;;2.40;;
9834;SDS011;4956;50.996;13.716;2022-08-21T19:20:57;3.60;;;2.40;;
9834;SDS011;4956;50.996;13.716;2022-08-21T19:24:17;4.80;;;2.35;;
9834;SDS011;4956;50.996;13.716;2022-08-21T19:27:38;5.20;;;2.40;;
9834;SDS011;4956;50.996;13.716;2022-08-21T19:31:06;3.20;;;2.10;;
9834;SDS011;4956;50.996;13.716;2022-08-21T19:34:30;3.75;;;2.30;;
9834;SDS011;4956;50.996;13.716;2022-08-21T19:37:50;3.10;;;2.00;;
9834;SDS011;4956;50.996;13.716;2022-08-21T19:41:12;4.00;;;2.35;;
9834;SDS011;4956;50.996;13.716;2022-08-21T19:44:33;5.05;;;2.70;;
9834;SDS011;4956;50.996;13.716;2022-08-21T19:47:54;4.43;;;2.30;;
9834;SDS011;4956;50.996;13.716;2022-08-21T19:51:15;4.20;;;2.25;;
9834;SDS011;4956;50.996;13.716;2022-08-21T19:54:35;3.47;;;2.47;;
9834;SDS011;4956;50.996;13.716;2022-08-21T19:57:55;4.07;;;2.30;;
9834;SDS011;4956;50.996;13.716;2022-08-21T20:01:16;4.20;;;2.35;;
9834;SDS011;4956;50.996;13.716;2022-08-21T20:04:38;3.63;;;2.97;;
9834;SDS011;4956;50.996;13.716;2022-08-21T20:07:59;4.63;;;3.10;;
9834;SDS011;4956;50.996;13.716;2022-08-21T20:11:24;3.13;;;2.67;;
9834;SDS011;4956;50.996;13.716;2022-08-21T20:14:51;3.92;;;2.75;;
9834;SDS011;4956;50.996;13.716;2022-08-21T20:18:11;8.40;;;2.55;;
9834;SDS011;4956;50.996;13.716;2022-08-21T20:21:32;5.75;;;2.58;;
9834;SDS011;4956;50.996;13.716;2022-08-21T20:24:53;3.50;;;2.30;;
9834;SDS011;4956;50.996;13.716;2022-08-21T20:28:14;4.32;;;2.55;;
9834;SDS011;4956;50.996;13.716;2022-08-21T20:31:34;4.18;;;3.25;;
9834;SDS011;4956;50.996;13.716;2022-08-21T20:34:54;3.70;;;2.90;;
9834;SDS011;4956;50.996;13.716;2022-08-21T20:38:15;6.13;;;2.45;;
9834;SDS011;4956;50.996;13.716;2022-08-21T20:41:35;4.35;;;2.50;;
9834;SDS011;4956;50.996;13.716;2022-08-21T20:44:56;3.33;;;2.20;;
9834;SDS011;4956;50.996;13.716;2022-08-21T20:51:48;4.88;;;2.50;;
9834;SDS011;4956;50.996;13.716;2022-08-21T20:55:11;4.07;;;2.72;;
9834;SDS011;4956;50.996;13.716;2022-08-21T21:01:56;4.72;;;2.60;;
9834;SDS011;4956;50.996;13.716;2022-08-21T21:09:00;3.33;;;2.17;;
9834;SDS011;4956;50.996;13.716;2022-08-21T21:12:30;3.22;;;2.30;;
9834;SDS011;4956;50.996;13.716;2022-08-21T21:15:55;4.25;;;2.30;;
9834;SDS011;4956;50.996;13.716;2022-08-21T21:22:54;4.78;;;2.47;;
9834;SDS011;4956;50.996;13.716;2022-08-21T21:26:21;4.18;;;2.50;;
9834;SDS011;4956;50.996;13.716;2022-08-21T21:29:47;3.60;;;2.40;;
9834;SDS011;4956;50.996;13.716;2022-08-21T21:33:11;4.45;;;2.50;;
9834;SDS011;4956;50.996;13.716;2022-08-21T21:36:41;2.70;;;2.45;;
9834;SDS011;4956;50.996;13.716;2022-08-21T21:40:20;3.63;;;2.40;;
9834;SDS011;4956;50.996;13.716;2022-08-21T21:47:43;6.05;;;3.35;;